AAL389 KDFW-MMMX
Flight info
| Callsign | AAL389 |
|---|---|
| Flight time | 2h 16m |
| Altitude | 35000 |
| Route | NELYN6 HOARY DCT BRO DCT MAM UJ59 TAM UT100 ENAGA ENAGA3A |
| Aircraft | B738/M-SDE2E3FGHIRWXY/LB1 |
Departure
| Time | 2026-05-06 14:31 |
|---|---|
| Airport | Dallas Fort Worth International Airport (KDFW) |
Arrival
| Time | 2026-05-06 16:47 |
|---|---|
| Airport | Mexico City Benito Juárez International Airport (MMMX) |
| Time | Latitude | Longitude | Altitude | Speed | Heading |
|---|---|---|---|---|---|
| 2026-05-06 14:11 | 32.89713 | -97.04577 | 625 ft | 0 kts | 91° |
| 2026-05-06 14:23 | 32.89712 | -97.04576 | 625 ft | 0 kts | 99° |
| 2026-05-06 14:25 | 32.89706 | -97.04575 | 615 ft | 1 kts | 169° |
| 2026-05-06 14:25 | 32.89698 | -97.04591 | 618 ft | 5 kts | 239° |
| 2026-05-06 14:25 | 32.89667 | -97.04658 | 621 ft | 13 kts | 242° |
| 2026-05-06 14:26 | 32.89623 | -97.04773 | 615 ft | 16 kts | 255° |
| 2026-05-06 14:26 | 32.89593 | -97.04885 | 621 ft | 15 kts | 203° |
| 2026-05-06 14:26 | 32.89490 | -97.04888 | 615 ft | 15 kts | 181° |
| 2026-05-06 14:26 | 32.89390 | -97.04890 | 621 ft | 14 kts | 180° |
| 2026-05-06 14:27 | 32.89297 | -97.04890 | 625 ft | 13 kts | 180° |
| 2026-05-06 14:27 | 32.89193 | -97.04891 | 623 ft | 19 kts | 180° |
| 2026-05-06 14:27 | 32.89033 | -97.04892 | 622 ft | 25 kts | 180° |
| 2026-05-06 14:27 | 32.88866 | -97.04892 | 625 ft | 23 kts | 180° |
| 2026-05-06 14:28 | 32.88711 | -97.04893 | 619 ft | 22 kts | 180° |
| 2026-05-06 14:28 | 32.88556 | -97.04895 | 618 ft | 22 kts | 180° |
| 2026-05-06 14:28 | 32.88409 | -97.04895 | 622 ft | 21 kts | 180° |
| 2026-05-06 14:28 | 32.88263 | -97.04896 | 623 ft | 20 kts | 180° |
| 2026-05-06 14:29 | 32.88125 | -97.04896 | 622 ft | 20 kts | 180° |
| 2026-05-06 14:29 | 32.88050 | -97.04986 | 627 ft | 19 kts | 274° |
| 2026-05-06 14:29 | 32.88106 | -97.05090 | 627 ft | 5 kts | 0° |
| 2026-05-06 14:29 | 32.88108 | -97.05090 | 615 ft | 0 kts | 0° |
| 2026-05-06 14:30 | 32.88173 | -97.05089 | 617 ft | 37 kts | 0° |
| 2026-05-06 14:30 | 32.88669 | -97.05086 | 619 ft | 104 kts | 0° |
| 2026-05-06 14:31 | 32.89579 | -97.05084 | 633 ft | 156 kts | 1° |
| 2026-05-06 14:31 | 32.90695 | -97.05063 | 1222 ft | 162 kts | 2° |
| 2026-05-06 14:31 | 32.91848 | -97.05038 | 1913 ft | 170 kts | 360° |
| 2026-05-06 14:31 | 32.93123 | -97.05076 | 2203 ft | 197 kts | 359° |
| 2026-05-06 14:32 | 32.94537 | -97.05334 | 2571 ft | 211 kts | 340° |
| 2026-05-06 14:32 | 32.95990 | -97.05954 | 2821 ft | 234 kts | 339° |
| 2026-05-06 14:32 | 32.97539 | -97.06607 | 3399 ft | 243 kts | 341° |
| 2026-05-06 14:32 | 32.99130 | -97.07341 | 4079 ft | 249 kts | 330° |
| 2026-05-06 14:33 | 33.00383 | -97.08762 | 4775 ft | 253 kts | 301° |
| 2026-05-06 14:33 | 33.00997 | -97.10712 | 5558 ft | 254 kts | 276° |
| 2026-05-06 14:33 | 33.00979 | -97.12806 | 6389 ft | 252 kts | 266° |
| 2026-05-06 14:33 | 33.00848 | -97.14889 | 7162 ft | 253 kts | 264° |
| 2026-05-06 14:34 | 33.00704 | -97.17001 | 7820 ft | 259 kts | 263° |
| 2026-05-06 14:34 | 33.00489 | -97.19212 | 8293 ft | 270 kts | 262° |
| 2026-05-06 14:34 | 33.00257 | -97.21453 | 8921 ft | 275 kts | 262° |
| 2026-05-06 14:34 | 32.99818 | -97.23665 | 9574 ft | 277 kts | 243° |
| 2026-05-06 14:35 | 32.98717 | -97.25536 | 10295 ft | 277 kts | 229° |
| 2026-05-06 14:35 | 32.97311 | -97.27212 | 10563 ft | 296 kts | 225° |
| 2026-05-06 14:35 | 32.95596 | -97.28715 | 10705 ft | 321 kts | 206° |
| 2026-05-06 14:35 | 32.93355 | -97.29350 | 10883 ft | 345 kts | 187° |
| 2026-05-06 14:36 | 32.90907 | -97.29291 | 11253 ft | 357 kts | 181° |
| 2026-05-06 14:36 | 32.88417 | -97.29106 | 11829 ft | 360 kts | 181° |
| 2026-05-06 14:36 | 32.85917 | -97.28917 | 12500 ft | 360 kts | 182° |
| 2026-05-06 14:36 | 32.83418 | -97.28755 | 13191 ft | 360 kts | 183° |
| 2026-05-06 14:37 | 32.80914 | -97.28615 | 13808 ft | 362 kts | 184° |
| 2026-05-06 14:37 | 32.78389 | -97.28481 | 14424 ft | 365 kts | 184° |
| 2026-05-06 14:37 | 32.75839 | -97.28196 | 15036 ft | 371 kts | 179° |
| 2026-05-06 14:37 | 32.73277 | -97.27702 | 15675 ft | 375 kts | 178° |
| 2026-05-06 14:38 | 32.70697 | -97.27142 | 16267 ft | 378 kts | 178° |
| 2026-05-06 14:38 | 32.68106 | -97.26572 | 16863 ft | 380 kts | 178° |
| 2026-05-06 14:38 | 32.65494 | -97.26012 | 17435 ft | 382 kts | 179° |
| 2026-05-06 14:38 | 32.62865 | -97.25463 | 17960 ft | 385 kts | 179° |
| 2026-05-06 14:39 | 32.60223 | -97.24923 | 18510 ft | 387 kts | 180° |
| 2026-05-06 14:39 | 32.57567 | -97.24388 | 19041 ft | 389 kts | 180° |
| 2026-05-06 14:39 | 32.54878 | -97.23849 | 19527 ft | 393 kts | 180° |
| 2026-05-06 14:39 | 32.52169 | -97.23310 | 19978 ft | 396 kts | 180° |
| 2026-05-06 14:40 | 32.49437 | -97.22766 | 20425 ft | 400 kts | 180° |
| 2026-05-06 14:40 | 32.46689 | -97.22218 | 20945 ft | 401 kts | 180° |
| 2026-05-06 14:40 | 32.43925 | -97.21667 | 21361 ft | 405 kts | 180° |
| 2026-05-06 14:40 | 32.41136 | -97.21112 | 21766 ft | 408 kts | 180° |
| 2026-05-06 14:41 | 32.38328 | -97.20551 | 22182 ft | 410 kts | 180° |
| 2026-05-06 14:41 | 32.35503 | -97.19988 | 22587 ft | 413 kts | 180° |
| 2026-05-06 14:41 | 32.32662 | -97.19423 | 22967 ft | 415 kts | 180° |
| 2026-05-06 14:41 | 32.29802 | -97.18858 | 23342 ft | 417 kts | 180° |
| 2026-05-06 14:42 | 32.26956 | -97.18658 | 23677 ft | 403 kts | 195° |
| 2026-05-06 14:42 | 32.24189 | -97.19087 | 24078 ft | 402 kts | 196° |
| 2026-05-06 14:42 | 32.21406 | -97.19510 | 24411 ft | 405 kts | 196° |
| 2026-05-06 14:42 | 32.18604 | -97.19914 | 24774 ft | 406 kts | 195° |
| 2026-05-06 14:43 | 32.15788 | -97.20305 | 25113 ft | 408 kts | 195° |
| 2026-05-06 14:43 | 32.12958 | -97.20688 | 25445 ft | 410 kts | 195° |
| 2026-05-06 14:43 | 32.10119 | -97.21069 | 25791 ft | 411 kts | 195° |
| 2026-05-06 14:43 | 32.07274 | -97.21447 | 26145 ft | 412 kts | 195° |
| 2026-05-06 14:44 | 32.04418 | -97.21828 | 26446 ft | 414 kts | 195° |
| 2026-05-06 14:44 | 32.01550 | -97.22211 | 26733 ft | 416 kts | 196° |
| 2026-05-06 14:44 | 31.98670 | -97.22595 | 27033 ft | 417 kts | 195° |
| 2026-05-06 14:45 | 31.92867 | -97.23370 | 27519 ft | 422 kts | 195° |
| 2026-05-06 14:45 | 31.89947 | -97.23758 | 27781 ft | 423 kts | 195° |
| 2026-05-06 14:45 | 31.87025 | -97.24146 | 28054 ft | 424 kts | 195° |
| 2026-05-06 14:45 | 31.84080 | -97.24537 | 28307 ft | 426 kts | 195° |
| 2026-05-06 14:46 | 31.81126 | -97.24929 | 28574 ft | 426 kts | 195° |
| 2026-05-06 14:46 | 31.78188 | -97.25317 | 28922 ft | 425 kts | 195° |
| 2026-05-06 14:46 | 31.75259 | -97.25704 | 29309 ft | 422 kts | 195° |
| 2026-05-06 14:46 | 31.72344 | -97.26089 | 29700 ft | 420 kts | 196° |
| 2026-05-06 14:47 | 31.69445 | -97.26474 | 30037 ft | 419 kts | 196° |
| 2026-05-06 14:47 | 31.66559 | -97.26895 | 30355 ft | 414 kts | 200° |
| 2026-05-06 14:47 | 31.63881 | -97.27886 | 30691 ft | 398 kts | 211° |
| 2026-05-06 14:47 | 31.61342 | -97.29160 | 31086 ft | 396 kts | 211° |
| 2026-05-06 14:48 | 31.58796 | -97.30395 | 31431 ft | 395 kts | 210° |
| 2026-05-06 14:48 | 31.56250 | -97.31610 | 31735 ft | 395 kts | 210° |
| 2026-05-06 14:48 | 31.53704 | -97.32813 | 32055 ft | 394 kts | 210° |
| 2026-05-06 14:48 | 31.51165 | -97.34008 | 32369 ft | 393 kts | 210° |
| 2026-05-06 14:49 | 31.48632 | -97.35198 | 32642 ft | 393 kts | 210° |
| 2026-05-06 14:49 | 31.46098 | -97.36389 | 32938 ft | 392 kts | 210° |
| 2026-05-06 14:49 | 31.43573 | -97.37575 | 33248 ft | 390 kts | 210° |
| 2026-05-06 14:49 | 31.41058 | -97.38755 | 33564 ft | 389 kts | 211° |
| 2026-05-06 14:50 | 31.38581 | -97.39918 | 33876 ft | 387 kts | 211° |
| 2026-05-06 14:50 | 31.36084 | -97.41090 | 34131 ft | 386 kts | 211° |
| 2026-05-06 14:50 | 31.33580 | -97.42266 | 34330 ft | 387 kts | 211° |
| 2026-05-06 14:50 | 31.31071 | -97.43444 | 34474 ft | 389 kts | 211° |
| 2026-05-06 14:51 | 31.28549 | -97.44626 | 34637 ft | 391 kts | 211° |
| 2026-05-06 14:51 | 31.26026 | -97.45807 | 34885 ft | 390 kts | 211° |
| 2026-05-06 14:51 | 31.23501 | -97.46988 | 34956 ft | 393 kts | 211° |
| 2026-05-06 14:52 | 31.18416 | -97.49363 | 34960 ft | 393 kts | 211° |
| 2026-05-06 14:52 | 31.13365 | -97.51715 | 34961 ft | 389 kts | 211° |
| 2026-05-06 14:53 | 31.08347 | -97.54051 | 34963 ft | 387 kts | 211° |
| 2026-05-06 14:53 | 31.03347 | -97.56378 | 34961 ft | 386 kts | 211° |
| 2026-05-06 14:54 | 30.98347 | -97.58704 | 34956 ft | 387 kts | 211° |
| 2026-05-06 14:54 | 30.93352 | -97.61025 | 34973 ft | 387 kts | 211° |
| 2026-05-06 14:55 | 30.88332 | -97.63353 | 34979 ft | 389 kts | 211° |
| 2026-05-06 14:55 | 30.83282 | -97.65693 | 34971 ft | 391 kts | 211° |
| 2026-05-06 14:56 | 30.78208 | -97.68041 | 34962 ft | 394 kts | 210° |
| 2026-05-06 14:56 | 30.73099 | -97.70402 | 34952 ft | 396 kts | 211° |
| 2026-05-06 14:57 | 30.68830 | -97.72373 | 34943 ft | 397 kts | 210° |
| 2026-05-06 14:57 | 30.63687 | -97.74744 | 34943 ft | 398 kts | 210° |
| 2026-05-06 14:58 | 30.58474 | -97.77002 | 34933 ft | 409 kts | 202° |
| 2026-05-06 14:58 | 30.55603 | -97.77403 | 34948 ft | 426 kts | 190° |
| 2026-05-06 14:58 | 30.52619 | -97.77225 | 34959 ft | 432 kts | 187° |
| 2026-05-06 14:59 | 30.46617 | -97.76627 | 34939 ft | 433 kts | 186° |
| 2026-05-06 14:59 | 30.40635 | -97.76013 | 34931 ft | 431 kts | 186° |
| 2026-05-06 15:00 | 30.34673 | -97.75444 | 34928 ft | 429 kts | 187° |
| 2026-05-06 15:00 | 30.28729 | -97.74905 | 34938 ft | 427 kts | 187° |
| 2026-05-06 15:01 | 30.22806 | -97.74377 | 34927 ft | 427 kts | 187° |
| 2026-05-06 15:01 | 30.16884 | -97.73850 | 34910 ft | 426 kts | 187° |
| 2026-05-06 15:02 | 30.10955 | -97.73323 | 34900 ft | 426 kts | 187° |
| 2026-05-06 15:02 | 30.05044 | -97.72798 | 34898 ft | 426 kts | 187° |
| 2026-05-06 15:03 | 29.99126 | -97.72272 | 34903 ft | 426 kts | 187° |
| 2026-05-06 15:03 | 29.93201 | -97.71746 | 34906 ft | 427 kts | 186° |
| 2026-05-06 15:04 | 29.87271 | -97.71221 | 34909 ft | 428 kts | 186° |
| 2026-05-06 15:04 | 29.81327 | -97.70696 | 34904 ft | 429 kts | 186° |
| 2026-05-06 15:05 | 29.75364 | -97.70168 | 34899 ft | 430 kts | 186° |
| 2026-05-06 15:05 | 29.69390 | -97.69640 | 34894 ft | 431 kts | 186° |
| 2026-05-06 15:06 | 29.63406 | -97.69112 | 34888 ft | 431 kts | 186° |
| 2026-05-06 15:06 | 29.57417 | -97.68583 | 34882 ft | 432 kts | 186° |
| 2026-05-06 15:07 | 29.51421 | -97.68055 | 34878 ft | 432 kts | 186° |
| 2026-05-06 15:07 | 29.45425 | -97.67527 | 34879 ft | 432 kts | 186° |
| 2026-05-06 15:08 | 29.39433 | -97.67000 | 34878 ft | 432 kts | 186° |
| 2026-05-06 15:08 | 29.33450 | -97.66476 | 34875 ft | 432 kts | 186° |
| 2026-05-06 15:09 | 29.27455 | -97.65950 | 34881 ft | 431 kts | 186° |
| 2026-05-06 15:09 | 29.21466 | -97.65426 | 34876 ft | 432 kts | 185° |
| 2026-05-06 15:10 | 29.15467 | -97.64902 | 34882 ft | 432 kts | 185° |
| 2026-05-06 15:10 | 29.09464 | -97.64378 | 34878 ft | 433 kts | 185° |
| 2026-05-06 15:11 | 29.03447 | -97.63853 | 34876 ft | 434 kts | 185° |
| 2026-05-06 15:11 | 28.97421 | -97.63329 | 34868 ft | 435 kts | 185° |
| 2026-05-06 15:12 | 28.91378 | -97.62803 | 34875 ft | 436 kts | 185° |
| 2026-05-06 15:12 | 28.85318 | -97.62276 | 34865 ft | 437 kts | 185° |
| 2026-05-06 15:13 | 28.79246 | -97.61749 | 34870 ft | 438 kts | 185° |
| 2026-05-06 15:13 | 28.73160 | -97.61221 | 34859 ft | 439 kts | 185° |
| 2026-05-06 15:14 | 28.67063 | -97.60692 | 34861 ft | 439 kts | 185° |
| 2026-05-06 15:14 | 28.60971 | -97.60165 | 34863 ft | 440 kts | 184° |
| 2026-05-06 15:15 | 28.54869 | -97.59638 | 34862 ft | 440 kts | 184° |
| 2026-05-06 15:15 | 28.48767 | -97.59111 | 34859 ft | 440 kts | 184° |
| 2026-05-06 15:16 | 28.42659 | -97.58584 | 34860 ft | 440 kts | 184° |
| 2026-05-06 15:16 | 28.36596 | -97.58062 | 34862 ft | 439 kts | 184° |
| 2026-05-06 15:17 | 28.30492 | -97.57537 | 34860 ft | 439 kts | 184° |
| 2026-05-06 15:17 | 28.24394 | -97.57013 | 34861 ft | 439 kts | 184° |
| 2026-05-06 15:18 | 28.18298 | -97.56489 | 34861 ft | 439 kts | 184° |
| 2026-05-06 15:18 | 28.12197 | -97.55966 | 34852 ft | 440 kts | 184° |
| 2026-05-06 15:19 | 28.06092 | -97.55443 | 34853 ft | 439 kts | 184° |
| 2026-05-06 15:19 | 27.99999 | -97.54922 | 34852 ft | 439 kts | 184° |
| 2026-05-06 15:20 | 27.93904 | -97.54402 | 34851 ft | 439 kts | 184° |
| 2026-05-06 15:20 | 27.87798 | -97.53881 | 34853 ft | 440 kts | 184° |
| 2026-05-06 15:21 | 27.81700 | -97.53361 | 34848 ft | 440 kts | 184° |
| 2026-05-06 15:21 | 27.75595 | -97.52841 | 34853 ft | 440 kts | 184° |
| 2026-05-06 15:22 | 27.69484 | -97.52322 | 34851 ft | 440 kts | 184° |
| 2026-05-06 15:22 | 27.63362 | -97.51803 | 34853 ft | 441 kts | 184° |
| 2026-05-06 15:23 | 27.57236 | -97.51283 | 34851 ft | 441 kts | 184° |
| 2026-05-06 15:23 | 27.51121 | -97.50765 | 34852 ft | 441 kts | 184° |
| 2026-05-06 15:24 | 27.45036 | -97.50249 | 34851 ft | 441 kts | 183° |
| 2026-05-06 15:24 | 27.38908 | -97.49731 | 34850 ft | 442 kts | 183° |
| 2026-05-06 15:25 | 27.32779 | -97.49213 | 34855 ft | 442 kts | 183° |
| 2026-05-06 15:25 | 27.26637 | -97.48694 | 34851 ft | 443 kts | 183° |
| 2026-05-06 15:26 | 27.20493 | -97.48176 | 34854 ft | 443 kts | 183° |
| 2026-05-06 15:26 | 27.14342 | -97.47659 | 34851 ft | 443 kts | 183° |
| 2026-05-06 15:27 | 27.08197 | -97.47142 | 34852 ft | 443 kts | 183° |
| 2026-05-06 15:27 | 27.02054 | -97.46625 | 34852 ft | 443 kts | 182° |
| 2026-05-06 15:28 | 26.95911 | -97.46110 | 34849 ft | 443 kts | 182° |
| 2026-05-06 15:28 | 26.89770 | -97.45595 | 34854 ft | 443 kts | 182° |
| 2026-05-06 15:29 | 26.83621 | -97.45080 | 34851 ft | 443 kts | 182° |
| 2026-05-06 15:29 | 26.77474 | -97.44567 | 34854 ft | 443 kts | 182° |
| 2026-05-06 15:30 | 26.71326 | -97.44053 | 34852 ft | 443 kts | 182° |
| 2026-05-06 15:30 | 26.65176 | -97.43539 | 34850 ft | 443 kts | 182° |
| 2026-05-06 15:31 | 26.59026 | -97.43026 | 34852 ft | 443 kts | 182° |
| 2026-05-06 15:31 | 26.52881 | -97.42514 | 34852 ft | 443 kts | 182° |
| 2026-05-06 15:32 | 26.43656 | -97.41748 | 34853 ft | 443 kts | 182° |
| 2026-05-06 15:32 | 26.37504 | -97.41236 | 34850 ft | 444 kts | 182° |
| 2026-05-06 15:33 | 26.31345 | -97.40724 | 34853 ft | 443 kts | 182° |
| 2026-05-06 15:33 | 26.25188 | -97.40213 | 34852 ft | 444 kts | 182° |
| 2026-05-06 15:34 | 26.19018 | -97.39703 | 34861 ft | 444 kts | 182° |
| 2026-05-06 15:34 | 26.12854 | -97.39192 | 34861 ft | 444 kts | 182° |
| 2026-05-06 15:35 | 26.07724 | -97.38768 | 34861 ft | 445 kts | 182° |
| 2026-05-06 15:35 | 26.01548 | -97.38257 | 34861 ft | 445 kts | 182° |
| 2026-05-06 15:36 | 25.95383 | -97.37921 | 34843 ft | 438 kts | 192° |
| 2026-05-06 15:36 | 25.92464 | -97.38685 | 34876 ft | 427 kts | 205° |
| 2026-05-06 15:36 | 25.89808 | -97.40099 | 34854 ft | 421 kts | 216° |
| 2026-05-06 15:37 | 25.85389 | -97.44276 | 34862 ft | 417 kts | 225° |
| 2026-05-06 15:37 | 25.81050 | -97.48570 | 34860 ft | 419 kts | 223° |
| 2026-05-06 15:38 | 25.78670 | -97.50467 | 34845 ft | 424 kts | 212° |
| 2026-05-06 15:38 | 25.75988 | -97.51853 | 34858 ft | 428 kts | 205° |
| 2026-05-06 15:38 | 25.70087 | -97.53251 | 34867 ft | 439 kts | 191° |
| 2026-05-06 15:39 | 25.63988 | -97.53803 | 34855 ft | 440 kts | 190° |
| 2026-05-06 15:39 | 25.57870 | -97.54360 | 34849 ft | 441 kts | 190° |
| 2026-05-06 15:40 | 25.51764 | -97.54965 | 34852 ft | 441 kts | 190° |
| 2026-05-06 15:40 | 25.45653 | -97.55586 | 34852 ft | 441 kts | 191° |
| 2026-05-06 15:41 | 25.39549 | -97.56203 | 34849 ft | 440 kts | 190° |
| 2026-05-06 15:41 | 25.33458 | -97.56833 | 34852 ft | 439 kts | 191° |
| 2026-05-06 15:42 | 25.27388 | -97.57560 | 34849 ft | 438 kts | 191° |
| 2026-05-06 15:42 | 25.21323 | -97.58299 | 34852 ft | 438 kts | 191° |
| 2026-05-06 15:43 | 25.15266 | -97.59022 | 34851 ft | 438 kts | 191° |
| 2026-05-06 15:43 | 25.09212 | -97.59739 | 34851 ft | 438 kts | 191° |
| 2026-05-06 15:44 | 25.03148 | -97.60416 | 34853 ft | 438 kts | 190° |
| 2026-05-06 15:44 | 24.97061 | -97.60995 | 34854 ft | 439 kts | 189° |
| 2026-05-06 15:45 | 24.90966 | -97.61563 | 34854 ft | 440 kts | 189° |
| 2026-05-06 15:45 | 24.84865 | -97.62143 | 34852 ft | 440 kts | 189° |
| 2026-05-06 15:46 | 24.78753 | -97.62732 | 34854 ft | 441 kts | 189° |
| 2026-05-06 15:46 | 24.72622 | -97.63323 | 34852 ft | 442 kts | 189° |
| 2026-05-06 15:47 | 24.66525 | -97.63910 | 34853 ft | 443 kts | 189° |
| 2026-05-06 15:47 | 24.60381 | -97.64500 | 34851 ft | 443 kts | 189° |
| 2026-05-06 15:48 | 24.54235 | -97.65089 | 34854 ft | 443 kts | 189° |
| 2026-05-06 15:48 | 24.48079 | -97.65679 | 34852 ft | 444 kts | 189° |
| 2026-05-06 15:49 | 24.41925 | -97.66270 | 34850 ft | 444 kts | 189° |
| 2026-05-06 15:49 | 24.35777 | -97.66858 | 34852 ft | 443 kts | 189° |
| 2026-05-06 15:50 | 24.29629 | -97.67446 | 34852 ft | 443 kts | 189° |
| 2026-05-06 15:50 | 24.23487 | -97.68032 | 34852 ft | 443 kts | 189° |
| 2026-05-06 15:51 | 24.17343 | -97.68618 | 34851 ft | 443 kts | 189° |
| 2026-05-06 15:51 | 24.11205 | -97.69203 | 34853 ft | 442 kts | 189° |
| 2026-05-06 15:52 | 24.05070 | -97.69787 | 34850 ft | 442 kts | 189° |
| 2026-05-06 15:52 | 23.98941 | -97.70370 | 34853 ft | 442 kts | 189° |
| 2026-05-06 15:53 | 23.92805 | -97.70954 | 34851 ft | 442 kts | 189° |
| 2026-05-06 15:53 | 23.86672 | -97.71536 | 34852 ft | 442 kts | 189° |
| 2026-05-06 15:54 | 23.80533 | -97.72118 | 34858 ft | 443 kts | 189° |
| 2026-05-06 15:54 | 23.74396 | -97.72700 | 34865 ft | 443 kts | 189° |
| 2026-05-06 15:55 | 23.68254 | -97.73282 | 34857 ft | 443 kts | 189° |
| 2026-05-06 15:55 | 23.62109 | -97.73864 | 34844 ft | 443 kts | 189° |
| 2026-05-06 15:56 | 23.55958 | -97.74444 | 34842 ft | 443 kts | 189° |
| 2026-05-06 15:56 | 23.49810 | -97.75025 | 34841 ft | 444 kts | 189° |
| 2026-05-06 15:57 | 23.43662 | -97.75604 | 34846 ft | 444 kts | 189° |
| 2026-05-06 15:57 | 23.37510 | -97.76183 | 34840 ft | 444 kts | 188° |
| 2026-05-06 15:58 | 23.31354 | -97.76763 | 34839 ft | 444 kts | 188° |
| 2026-05-06 15:58 | 23.25194 | -97.77341 | 34834 ft | 444 kts | 188° |
| 2026-05-06 15:59 | 23.19033 | -97.77920 | 34830 ft | 444 kts | 188° |
| 2026-05-06 15:59 | 23.12868 | -97.78493 | 34832 ft | 444 kts | 188° |
| 2026-05-06 16:00 | 23.06709 | -97.79063 | 34829 ft | 444 kts | 188° |
| 2026-05-06 16:00 | 23.00543 | -97.79633 | 34830 ft | 445 kts | 188° |
| 2026-05-06 16:01 | 22.94380 | -97.80202 | 34824 ft | 445 kts | 188° |
| 2026-05-06 16:01 | 22.88201 | -97.80772 | 34820 ft | 445 kts | 188° |
| 2026-05-06 16:02 | 22.82020 | -97.81343 | 34826 ft | 446 kts | 188° |
| 2026-05-06 16:02 | 22.75832 | -97.81911 | 34820 ft | 446 kts | 188° |
| 2026-05-06 16:03 | 22.69646 | -97.82481 | 34816 ft | 446 kts | 188° |
| 2026-05-06 16:03 | 22.63458 | -97.83062 | 34818 ft | 446 kts | 188° |
| 2026-05-06 16:04 | 22.57272 | -97.83648 | 34814 ft | 447 kts | 187° |
| 2026-05-06 16:04 | 22.51072 | -97.84232 | 34799 ft | 447 kts | 187° |
| 2026-05-06 16:05 | 22.44878 | -97.84814 | 34814 ft | 447 kts | 187° |
| 2026-05-06 16:05 | 22.38685 | -97.85394 | 34801 ft | 447 kts | 187° |
| 2026-05-06 16:06 | 22.32487 | -97.85975 | 34801 ft | 447 kts | 187° |
| 2026-05-06 16:06 | 22.26274 | -97.86521 | 34806 ft | 448 kts | 186° |
| 2026-05-06 16:07 | 22.20060 | -97.86900 | 34804 ft | 448 kts | 185° |
| 2026-05-06 16:07 | 22.13831 | -97.87250 | 34801 ft | 448 kts | 185° |
| 2026-05-06 16:08 | 22.07599 | -97.87618 | 34800 ft | 448 kts | 186° |
| 2026-05-06 16:08 | 22.01365 | -97.87998 | 34805 ft | 448 kts | 186° |
| 2026-05-06 16:09 | 21.95137 | -97.88380 | 34811 ft | 448 kts | 186° |
| 2026-05-06 16:09 | 21.88919 | -97.88760 | 34829 ft | 448 kts | 186° |
| 2026-05-06 16:10 | 21.82691 | -97.89140 | 34821 ft | 448 kts | 186° |
| 2026-05-06 16:10 | 21.76464 | -97.89520 | 34836 ft | 448 kts | 186° |
| 2026-05-06 16:11 | 21.70235 | -97.89899 | 34832 ft | 448 kts | 186° |
| 2026-05-06 16:11 | 21.63999 | -97.90279 | 34839 ft | 448 kts | 185° |
| 2026-05-06 16:12 | 21.57771 | -97.90657 | 34844 ft | 448 kts | 185° |
| 2026-05-06 16:12 | 21.52596 | -97.90971 | 34848 ft | 448 kts | 185° |
| 2026-05-06 16:13 | 21.46359 | -97.91350 | 34854 ft | 448 kts | 186° |
| 2026-05-06 16:13 | 21.40206 | -97.92245 | 34862 ft | 446 kts | 192° |
| 2026-05-06 16:14 | 21.34113 | -97.93479 | 34859 ft | 446 kts | 193° |
| 2026-05-06 16:14 | 21.28071 | -97.94942 | 34849 ft | 444 kts | 204° |
| 2026-05-06 16:15 | 21.22906 | -97.98432 | 34863 ft | 439 kts | 224° |
| 2026-05-06 16:15 | 21.18646 | -98.03131 | 34868 ft | 440 kts | 227° |
| 2026-05-06 16:16 | 21.14423 | -98.07877 | 34874 ft | 441 kts | 227° |
| 2026-05-06 16:16 | 21.10169 | -98.12606 | 34881 ft | 441 kts | 226° |
| 2026-05-06 16:17 | 21.05896 | -98.17315 | 34883 ft | 441 kts | 226° |
| 2026-05-06 16:17 | 21.01612 | -98.22021 | 34894 ft | 441 kts | 226° |
| 2026-05-06 16:18 | 20.97320 | -98.26731 | 34896 ft | 442 kts | 226° |
| 2026-05-06 16:18 | 20.93026 | -98.31442 | 34910 ft | 442 kts | 226° |
| 2026-05-06 16:19 | 20.88731 | -98.36148 | 34912 ft | 442 kts | 226° |
| 2026-05-06 16:19 | 20.84433 | -98.40856 | 34933 ft | 443 kts | 226° |
| 2026-05-06 16:20 | 20.80128 | -98.45567 | 34957 ft | 442 kts | 226° |
| 2026-05-06 16:20 | 20.75832 | -98.50263 | 34982 ft | 442 kts | 226° |
| 2026-05-06 16:21 | 20.71538 | -98.54951 | 35016 ft | 441 kts | 226° |
| 2026-05-06 16:21 | 20.67244 | -98.59638 | 35041 ft | 441 kts | 226° |
| 2026-05-06 16:22 | 20.62953 | -98.64317 | 35070 ft | 441 kts | 226° |
| 2026-05-06 16:22 | 20.58669 | -98.68985 | 35103 ft | 441 kts | 226° |
| 2026-05-06 16:23 | 20.54376 | -98.73658 | 35113 ft | 441 kts | 226° |
| 2026-05-06 16:23 | 20.50049 | -98.78364 | 34454 ft | 447 kts | 226° |
| 2026-05-06 16:24 | 20.47876 | -98.80725 | 33915 ft | 443 kts | 226° |
| 2026-05-06 16:24 | 20.45729 | -98.83057 | 33478 ft | 438 kts | 226° |
| 2026-05-06 16:24 | 20.43606 | -98.85362 | 33013 ft | 434 kts | 226° |
| 2026-05-06 16:24 | 20.41499 | -98.87649 | 32563 ft | 430 kts | 226° |
| 2026-05-06 16:25 | 20.39409 | -98.89918 | 32113 ft | 427 kts | 226° |
| 2026-05-06 16:25 | 20.37336 | -98.92166 | 31650 ft | 423 kts | 225° |
| 2026-05-06 16:25 | 20.35291 | -98.94384 | 31221 ft | 419 kts | 225° |
| 2026-05-06 16:25 | 20.33250 | -98.96596 | 30778 ft | 416 kts | 225° |
| 2026-05-06 16:26 | 20.31232 | -98.98782 | 30349 ft | 413 kts | 225° |
| 2026-05-06 16:26 | 20.29227 | -99.00953 | 29912 ft | 409 kts | 225° |
| 2026-05-06 16:26 | 20.27239 | -99.03104 | 29475 ft | 406 kts | 225° |
| 2026-05-06 16:26 | 20.25129 | -99.05079 | 28938 ft | 404 kts | 214° |
| 2026-05-06 16:27 | 20.22675 | -99.06574 | 27945 ft | 412 kts | 204° |
| 2026-05-06 16:27 | 20.19912 | -99.07613 | 26539 ft | 431 kts | 194° |
| 2026-05-06 16:27 | 20.16937 | -99.08325 | 25228 ft | 445 kts | 192° |
| 2026-05-06 16:27 | 20.13890 | -99.09020 | 24319 ft | 447 kts | 192° |
| 2026-05-06 16:28 | 20.10874 | -99.09709 | 23738 ft | 440 kts | 192° |
| 2026-05-06 16:28 | 20.07911 | -99.10395 | 23187 ft | 432 kts | 192° |
| 2026-05-06 16:28 | 20.04988 | -99.11081 | 22517 ft | 428 kts | 192° |
| 2026-05-06 16:28 | 20.02087 | -99.11768 | 21808 ft | 426 kts | 192° |
| 2026-05-06 16:29 | 19.99211 | -99.12454 | 21113 ft | 423 kts | 192° |
| 2026-05-06 16:29 | 19.96351 | -99.13138 | 20428 ft | 420 kts | 191° |
| 2026-05-06 16:29 | 19.93511 | -99.13817 | 19742 ft | 417 kts | 191° |
| 2026-05-06 16:29 | 19.90692 | -99.14491 | 19080 ft | 414 kts | 191° |
| 2026-05-06 16:30 | 19.87891 | -99.15160 | 18439 ft | 410 kts | 191° |
| 2026-05-06 16:30 | 19.86051 | -99.15600 | 18020 ft | 408 kts | 191° |
| 2026-05-06 16:30 | 19.82368 | -99.16478 | 17165 ft | 404 kts | 191° |
| 2026-05-06 16:30 | 19.79639 | -99.17129 | 16513 ft | 401 kts | 191° |
| 2026-05-06 16:31 | 19.76921 | -99.17776 | 15861 ft | 399 kts | 191° |
| 2026-05-06 16:31 | 19.74222 | -99.18419 | 15233 ft | 396 kts | 191° |
| 2026-05-06 16:31 | 19.71530 | -99.19060 | 14587 ft | 394 kts | 192° |
| 2026-05-06 16:31 | 19.68898 | -99.19687 | 13974 ft | 392 kts | 192° |
| 2026-05-06 16:32 | 19.66253 | -99.20316 | 13502 ft | 386 kts | 192° |
| 2026-05-06 16:32 | 19.63685 | -99.20926 | 13423 ft | 369 kts | 192° |
| 2026-05-06 16:32 | 19.61232 | -99.21509 | 13325 ft | 355 kts | 192° |
| 2026-05-06 16:32 | 19.58864 | -99.22071 | 13237 ft | 342 kts | 192° |
| 2026-05-06 16:33 | 19.56579 | -99.22615 | 13153 ft | 330 kts | 192° |
| 2026-05-06 16:33 | 19.54380 | -99.23135 | 13077 ft | 318 kts | 192° |
| 2026-05-06 16:33 | 19.52253 | -99.23637 | 12982 ft | 308 kts | 191° |
| 2026-05-06 16:34 | 19.48187 | -99.24495 | 12827 ft | 288 kts | 190° |
| 2026-05-06 16:34 | 19.46235 | -99.24903 | 12571 ft | 285 kts | 190° |
| 2026-05-06 16:34 | 19.44280 | -99.25178 | 12272 ft | 282 kts | 174° |
| 2026-05-06 16:34 | 19.42479 | -99.24590 | 12259 ft | 264 kts | 149° |
| 2026-05-06 16:35 | 19.41122 | -99.23393 | 12075 ft | 248 kts | 130° |
| 2026-05-06 16:35 | 19.40031 | -99.21996 | 11616 ft | 246 kts | 128° |
| 2026-05-06 16:35 | 19.38952 | -99.20586 | 11085 ft | 247 kts | 128° |
| 2026-05-06 16:35 | 19.37918 | -99.19143 | 10568 ft | 246 kts | 117° |
| 2026-05-06 16:36 | 19.37614 | -99.17417 | 9941 ft | 241 kts | 78° |
| 2026-05-06 16:36 | 19.38330 | -99.15836 | 9382 ft | 239 kts | 56° |
| 2026-05-06 16:36 | 19.39224 | -99.14397 | 8793 ft | 234 kts | 56° |
| 2026-05-06 16:36 | 19.40136 | -99.12950 | 8193 ft | 233 kts | 58° |
| 2026-05-06 16:37 | 19.40963 | -99.11607 | 8765 ft | 211 kts | 58° |
| 2026-05-06 16:37 | 19.41765 | -99.10300 | 9207 ft | 214 kts | 59° |
| 2026-05-06 16:37 | 19.42561 | -99.08923 | 9412 ft | 225 kts | 59° |
| 2026-05-06 16:37 | 19.43366 | -99.07488 | 9749 ft | 226 kts | 60° |
| 2026-05-06 16:38 | 19.44173 | -99.05996 | 9832 ft | 240 kts | 60° |
| 2026-05-06 16:38 | 19.45024 | -99.04460 | 10060 ft | 246 kts | 60° |
| 2026-05-06 16:38 | 19.45942 | -99.02869 | 10379 ft | 258 kts | 60° |
| 2026-05-06 16:38 | 19.46516 | -99.01103 | 10953 ft | 256 kts | 86° |
| 2026-05-06 16:39 | 19.46268 | -98.99250 | 10983 ft | 254 kts | 115° |
| 2026-05-06 16:39 | 19.45215 | -98.97781 | 10999 ft | 252 kts | 139° |
| 2026-05-06 16:39 | 19.43839 | -98.96643 | 11007 ft | 252 kts | 143° |
| 2026-05-06 16:39 | 19.42374 | -98.95619 | 10991 ft | 253 kts | 155° |
| 2026-05-06 16:40 | 19.40662 | -98.95276 | 11006 ft | 252 kts | 186° |
| 2026-05-06 16:40 | 19.39025 | -98.95879 | 10992 ft | 253 kts | 216° |
| 2026-05-06 16:40 | 19.37813 | -98.97218 | 11010 ft | 252 kts | 233° |
| 2026-05-06 16:40 | 19.36803 | -98.98746 | 11002 ft | 254 kts | 239° |
| 2026-05-06 16:41 | 19.36010 | -99.00427 | 11002 ft | 255 kts | 245° |
| 2026-05-06 16:41 | 19.35256 | -99.02125 | 10977 ft | 254 kts | 245° |
| 2026-05-06 16:41 | 19.34509 | -99.03804 | 10803 ft | 250 kts | 245° |
| 2026-05-06 16:41 | 19.33769 | -99.05471 | 10436 ft | 250 kts | 245° |
| 2026-05-06 16:42 | 19.33031 | -99.07138 | 10072 ft | 250 kts | 245° |
| 2026-05-06 16:42 | 19.32305 | -99.08775 | 9635 ft | 243 kts | 245° |
| 2026-05-06 16:42 | 19.31593 | -99.10385 | 9122 ft | 236 kts | 245° |
| 2026-05-06 16:42 | 19.30934 | -99.11889 | 8974 ft | 216 kts | 245° |
| 2026-05-06 16:43 | 19.30350 | -99.13266 | 8874 ft | 193 kts | 251° |
| 2026-05-06 16:43 | 19.30341 | -99.14636 | 8902 ft | 192 kts | 294° |
| 2026-05-06 16:43 | 19.31270 | -99.15580 | 8890 ft | 189 kts | 343° |
| 2026-05-06 16:43 | 19.32575 | -99.15694 | 8910 ft | 190 kts | 0° |
| 2026-05-06 16:44 | 19.33892 | -99.15683 | 8887 ft | 188 kts | 1° |
| 2026-05-06 16:44 | 19.35193 | -99.15664 | 8884 ft | 187 kts | 1° |
| 2026-05-06 16:44 | 19.36494 | -99.15635 | 8897 ft | 187 kts | 1° |
| 2026-05-06 16:44 | 19.37800 | -99.15604 | 8909 ft | 189 kts | 3° |
| 2026-05-06 16:45 | 19.39029 | -99.15165 | 8782 ft | 187 kts | 43° |
| 2026-05-06 16:45 | 19.39691 | -99.14031 | 8621 ft | 180 kts | 65° |
| 2026-05-06 16:45 | 19.40280 | -99.12865 | 8341 ft | 177 kts | 59° |
| 2026-05-06 16:45 | 19.40920 | -99.11763 | 8100 ft | 174 kts | 58° |
| 2026-05-06 16:46 | 19.41533 | -99.10664 | 7863 ft | 174 kts | 60° |
| 2026-05-06 16:46 | 19.42148 | -99.09560 | 7626 ft | 175 kts | 59° |
| 2026-05-06 16:46 | 19.42777 | -99.08443 | 7377 ft | 175 kts | 59° |
| 2026-05-06 16:46 | 19.43368 | -99.07393 | 7303 ft | 143 kts | 59° |
| 2026-05-06 16:47 | 19.43769 | -99.06685 | 7302 ft | 80 kts | 59° |
| 2026-05-06 16:47 | 19.43949 | -99.06481 | 7302 ft | 26 kts | 25° |
| 2026-05-06 16:47 | 19.44093 | -99.06402 | 7302 ft | 14 kts | 28° |
| 2026-05-06 16:47 | 19.44155 | -99.06367 | 7302 ft | 10 kts | 27° |
| 2026-05-06 16:48 | 19.44216 | -99.06336 | 7302 ft | 10 kts | 23° |
| 2026-05-06 16:48 | 19.44276 | -99.06308 | 7302 ft | 9 kts | 23° |
| 2026-05-06 16:48 | 19.44347 | -99.06286 | 7301 ft | 13 kts | 1° |
| 2026-05-06 16:48 | 19.44400 | -99.06359 | 7302 ft | 15 kts | 255° |
| 2026-05-06 16:49 | 19.44349 | -99.06454 | 7302 ft | 14 kts | 239° |
| 2026-05-06 16:49 | 19.44298 | -99.06543 | 7302 ft | 14 kts | 239° |
| 2026-05-06 16:49 | 19.44250 | -99.06629 | 7302 ft | 13 kts | 239° |
| 2026-05-06 16:49 | 19.44204 | -99.06710 | 7302 ft | 13 kts | 239° |
| 2026-05-06 16:50 | 19.44160 | -99.06790 | 7302 ft | 12 kts | 239° |
| 2026-05-06 16:50 | 19.44116 | -99.06868 | 7302 ft | 12 kts | 239° |
| 2026-05-06 16:50 | 19.44062 | -99.06963 | 7302 ft | 18 kts | 239° |
| 2026-05-06 16:50 | 19.44019 | -99.07040 | 7302 ft | 18 kts | 239° |
| 2026-05-06 16:51 | 19.43938 | -99.07183 | 7302 ft | 16 kts | 239° |
| 2026-05-06 16:51 | 19.43884 | -99.07280 | 7302 ft | 15 kts | 239° |
| 2026-05-06 16:51 | 19.43832 | -99.07372 | 7302 ft | 14 kts | 239° |
| 2026-05-06 16:51 | 19.43784 | -99.07457 | 7302 ft | 13 kts | 239° |
| 2026-05-06 16:52 | 19.43753 | -99.07513 | 7302 ft | 13 kts | 239° |
| 2026-05-06 16:52 | 19.43708 | -99.07593 | 7302 ft | 13 kts | 239° |
| 2026-05-06 16:52 | 19.43657 | -99.07683 | 7302 ft | 17 kts | 239° |
| 2026-05-06 16:52 | 19.43584 | -99.07813 | 7302 ft | 22 kts | 239° |
| 2026-05-06 16:53 | 19.43575 | -99.07910 | 7302 ft | 11 kts | 329° |
| 2026-05-06 16:53 | 19.43615 | -99.07934 | 7302 ft | 0 kts | 329° |